Time;durP1;ratioP1;P1;durP2;ratioP2;P2;SDS_P1;SDS_P2;PMS_P1;PMS_P2;Temp;Humidity;BMP_temperature;BMP_pressure;BME280_temperature;BME280_humidity;BME280_pressure;Samples;Min_cycle;Max_cycle;Signal;HPM_P1;HPM_P2
2022/03/21 00:01:02;;;;;;;372.52;111.90;;;;;;;1.08;100.00;102996.38;5006924;28;20045;-71
2022/03/21 00:03:28;;;;;;;424.33;116.65;;;;;;;1.04;100.00;102991.91;5006239;28;20037;-71
2022/03/21 00:05:56;;;;;;;425.20;117.60;;;;;;;1.02;100.00;103001.41;4990116;28;20444;-71
2022/03/21 00:08:24;;;;;;;369.02;113.00;;;;;;;1.01;100.00;102997.94;4988928;28;20471;-71
2022/03/21 00:10:52;;;;;;;381.63;115.93;;;;;;;1.01;100.00;102994.41;4988126;28;20025;-71
2022/03/21 00:13:18;;;;;;;384.52;116.30;;;;;;;0.99;100.00;102997.00;5003782;28;20032;-70
2022/03/21 00:15:48;;;;;;;546.75;125.63;;;;;;;0.96;100.00;102989.06;5005998;28;20053;-71
2022/03/21 00:18:14;;;;;;;1054.75;144.73;;;;;;;0.94;100.00;102999.47;4989463;28;20037;-71
2022/03/21 00:20:45;;;;;;;909.80;141.57;;;;;;;0.88;100.00;103004.50;5003609;28;20044;-71
2022/03/21 00:23:11;;;;;;;1061.43;149.27;;;;;;;0.84;100.00;102994.81;5002606;28;20025;-70
2022/03/21 00:25:37;;;;;;;617.95;116.60;;;;;;;0.81;100.00;103000.84;4987493;28;20044;-71
2022/03/21 00:28:04;;;;;;;1007.15;143.63;;;;;;;0.81;100.00;103005.16;4985786;28;20029;-71
2022/03/21 00:30:30;;;;;;;1103.38;149.55;;;;;;;0.79;100.00;103007.72;4988227;28;20033;-71
2022/03/21 00:32:56;;;;;;;1024.90;145.65;;;;;;;0.75;100.00;102999.75;4990956;28;20606;-71
2022/03/21 00:35:22;;;;;;;926.65;142.75;;;;;;;0.73;100.00;102998.81;4987041;28;20024;-71
2022/03/21 00:37:48;;;;;;;571.38;119.90;;;;;;;0.70;100.00;103002.22;5004001;28;20033;-71
2022/03/21 00:40:15;;;;;;;377.40;111.60;;;;;;;0.67;100.00;102997.78;5006061;28;20510;-71
2022/03/21 00:42:42;;;;;;;285.27;100.63;;;;;;;0.64;100.00;103000.31;4987310;28;20038;-71
2022/03/21 00:45:10;;;;;;;263.50;100.90;;;;;;;0.65;100.00;103015.13;5004792;28;20539;-70
2022/03/21 00:47:36;;;;;;;275.02;100.93;;;;;;;0.65;100.00;103016.84;5003492;28;20022;-71
2022/03/21 00:50:03;;;;;;;266.20;96.75;;;;;;;0.61;100.00;103018.47;5004946;28;20250;-71
2022/03/21 00:52:30;;;;;;;318.10;105.25;;;;;;;0.60;100.00;103024.50;5003916;28;20530;-70
2022/03/21 00:54:56;;;;;;;285.90;98.70;;;;;;;0.60;100.00;103023.66;5007528;28;20084;-71
2022/03/21 00:57:22;;;;;;;391.23;112.40;;;;;;;0.59;100.00;103017.53;5007232;28;20030;-71
2022/03/21 00:59:48;;;;;;;369.13;112.97;;;;;;;0.59;100.00;103019.28;5008501;28;21198;-71
2022/03/21 01:02:14;;;;;;;333.90;111.90;;;;;;;0.59;100.00;103019.28;5007377;28;20516;-70
2022/03/21 01:04:39;;;;;;;273.17;105.10;;;;;;;0.58;100.00;103036.63;5007976;28;20298;-70
2022/03/21 01:07:05;;;;;;;263.17;103.10;;;;;;;0.58;100.00;103031.41;5009005;28;20041;-70
2022/03/21 01:09:32;;;;;;;256.67;104.05;;;;;;;0.58;100.00;103027.91;5007969;28;20166;-70
2022/03/21 01:12:00;;;;;;;257.45;103.53;;;;;;;0.59;100.00;103027.97;4990140;28;20523;-70
2022/03/21 01:14:26;;;;;;;261.13;101.10;;;;;;;0.57;100.00;103032.25;5007625;28;20063;-71
2022/03/21 01:16:55;;;;;;;251.43;99.85;;;;;;;0.52;100.00;103034.72;5007950;28;20037;-71
2022/03/21 01:19:20;;;;;;;254.73;96.78;;;;;;;0.48;100.00;103031.97;5006531;28;20037;-71
2022/03/21 01:21:46;;;;;;;249.82;98.70;;;;;;;0.44;100.00;103027.47;5007333;28;20110;-71
2022/03/21 01:24:11;;;;;;;256.65;100.38;;;;;;;0.45;100.00;103031.84;4989804;28;20125;-71
2022/03/21 01:26:37;;;;;;;257.75;101.93;;;;;;;0.46;100.00;103044.94;4989568;28;20033;-71
2022/03/21 01:29:02;;;;;;;255.85;100.28;;;;;;;0.48;100.00;103045.00;4988346;28;20034;-71
2022/03/21 01:31:28;;;;;;;246.23;99.85;;;;;;;0.44;100.00;103046.59;5006723;28;20223;-70
2022/03/21 01:33:53;;;;;;;251.32;101.35;;;;;;;0.45;100.00;103047.50;4990688;28;20060;-70
2022/03/21 01:36:20;;;;;;;244.82;101.80;;;;;;;0.47;100.00;103040.59;4989755;28;20079;-70
2022/03/21 01:38:45;;;;;;;247.48;98.90;;;;;;;0.46;100.00;103046.66;5009417;28;20510;-71
2022/03/21 01:41:11;;;;;;;258.98;102.05;;;;;;;0.45;100.00;103042.28;5007557;28;21355;-70
2022/03/21 01:43:56;;;;;;;277.00;105.18;;;;;;;0.44;100.00;103046.59;4991384;28;20037;-70
2022/03/21 01:46:22;;;;;;;249.13;99.53;;;;;;;0.43;100.00;103050.03;5007605;28;20499;-71
2022/03/21 01:48:47;;;;;;;260.52;102.47;;;;;;;0.43;100.00;103042.22;4978263;28;20029;-71
2022/03/21 01:51:14;;;;;;;249.02;101.10;;;;;;;0.45;100.00;103052.72;5007749;28;20033;-71
2022/03/21 01:56:24;;;;;;;258.33;99.63;;;;;;;0.43;100.00;103052.66;5008926;28;20083;-71
2022/03/21 01:58:50;;;;;;;238.80;99.90;;;;;;;0.41;100.00;103043.91;5007232;28;20508;-71
2022/03/21 02:01:15;;;;;;;245.00;100.43;;;;;;;0.39;100.00;103049.06;5008968;28;20033;-71
2022/03/21 02:03:41;;;;;;;245.95;98.65;;;;;;;0.38;100.00;103047.28;5009178;28;20037;-71
2022/03/21 02:06:06;;;;;;;243.57;99.35;;;;;;;0.35;100.00;103046.31;4990349;28;20026;-71
2022/03/21 02:08:32;;;;;;;231.23;96.68;;;;;;;0.32;100.00;103043.63;4990510;28;20081;-71
2022/03/21 02:10:57;;;;;;;220.32;94.60;;;;;;;0.30;100.00;103053.09;5008634;28;20029;-71
2022/03/21 02:13:23;;;;;;;233.43;95.78;;;;;;;0.28;100.00;103055.66;4975875;28;20504;-71
2022/03/21 02:15:49;;;;;;;242.38;99.88;;;;;;;0.27;100.00;103053.88;5005161;28;20507;-71
2022/03/21 02:18:16;;;;;;;259.63;102.10;;;;;;;0.29;100.00;103051.31;5006779;28;20033;-72
2022/03/21 02:20:42;;;;;;;245.68;99.90;;;;;;;0.30;100.00;103045.28;5008840;28;20038;-72
2022/03/21 02:23:21;;;;;;;247.95;98.70;;;;;;;0.30;100.00;103053.97;4989494;28;20030;-72
2022/03/21 02:25:49;;;;;;;288.52;106.80;;;;;;;0.28;100.00;103052.16;4987367;28;20728;-72
2022/03/21 02:28:16;;;;;;;250.98;99.60;;;;;;;0.26;100.00;103044.28;4974411;28;20420;-71
2022/03/21 02:30:49;;;;;;;249.05;101.75;;;;;;;0.24;100.00;103049.47;4989165;28;20039;-73
2022/03/21 02:33:17;;;;;;;;;;;;;;;0.24;100.00;103048.56;4987298;28;20149;-72
2022/03/21 02:35:46;;;;;;;245.38;97.60;;;;;;;0.23;100.00;103047.66;5008348;28;20018;-72
2022/03/21 02:38:12;;;;;;;246.73;98.85;;;;;;;0.20;100.00;103042.38;5005277;28;20128;-72
2022/03/21 02:40:37;;;;;;;263.70;102.68;;;;;;;0.21;100.00;103049.34;4988851;28;20384;-72
2022/03/21 02:43:03;;;;;;;251.30;100.00;;;;;;;0.21;100.00;103045.88;5008532;28;20044;-72
2022/03/21 02:45:28;;;;;;;252.73;100.10;;;;;;;0.21;100.00;103051.09;5005862;28;20037;-72
2022/03/21 02:47:54;;;;;;;261.63;102.95;;;;;;;0.18;100.00;103050.97;5007181;28;20706;-72
2022/03/21 02:50:32;;;;;;;253.40;102.07;;;;;;;0.16;100.00;103047.44;5006659;28;20034;-72
2022/03/21 02:52:58;;;;;;;244.27;98.80;;;;;;;0.15;100.00;103048.28;4988357;28;20037;-71
2022/03/21 02:55:23;;;;;;;250.82;100.60;;;;;;;0.11;100.00;103055.97;5006557;28;20033;-72
2022/03/21 02:57:49;;;;;;;227.73;95.07;;;;;;;0.08;100.00;103055.88;5007173;28;20484;-72
2022/03/21 03:00:15;;;;;;;246.95;99.45;;;;;;;0.06;100.00;103054.91;5007489;28;20502;-72
2022/03/21 03:02:40;;;;;;;260.15;100.72;;;;;;;0.06;100.00;103049.72;4988790;28;20032;-72
2022/03/21 03:05:07;;;;;;;235.77;99.45;;;;;;;0.04;100.00;103054.00;4978052;28;20484;-72
2022/03/21 03:07:32;;;;;;;229.98;96.43;;;;;;;0.05;100.00;103047.06;4978905;28;20129;-72
2022/03/21 03:09:58;;;;;;;237.55;97.32;;;;;;;0.02;100.00;103050.47;5005864;28;20021;-72
2022/03/21 03:12:23;;;;;;;237.73;98.88;;;;;;;0.01;100.00;103047.78;5005981;28;20752;-71
2022/03/21 03:14:49;;;;;;;233.65;96.93;;;;;;;-0.01;100.00;103045.13;4989810;28;20463;-71
2022/03/21 03:17:14;;;;;;;230.57;99.10;;;;;;;0.01;100.00;103053.00;4988422;28;20052;-72
2022/03/21 03:19:40;;;;;;;215.10;96.30;;;;;;;0.01;100.00;103045.19;5005932;28;20051;-71
2022/03/21 03:22:05;;;;;;;222.90;99.20;;;;;;;0.01;100.00;103046.09;5006462;28;20064;-71
2022/03/21 03:24:31;;;;;;;217.98;96.93;;;;;;;0.03;100.00;103053.94;5006897;28;20487;-71
2022/03/21 03:26:57;;;;;;;217.18;98.35;;;;;;;0.05;100.00;103053.16;5006361;28;20084;-71
2022/03/21 03:29:22;;;;;;;219.50;98.78;;;;;;;0.04;100.00;103051.38;5006572;28;20038;-71
2022/03/21 03:31:48;;;;;;;205.38;93.38;;;;;;;0.03;100.00;103054.84;4989031;28;20032;-71
2022/03/21 03:34:14;;;;;;;190.18;91.03;;;;;;;0.04;100.00;103061.81;5006901;28;20108;-71
2022/03/21 03:36:39;;;;;;;200.98;93.78;;;;;;;0.02;100.00;103055.66;5005262;28;20450;-71
2022/03/21 03:39:05;;;;;;;194.25;91.10;;;;;;;0.01;100.00;103059.13;4987979;28;20328;-71
2022/03/21 03:41:31;;;;;;;186.38;89.40;;;;;;;-0.02;100.00;103061.59;4990040;28;20452;-71
2022/03/21 03:43:57;;;;;;;195.18;93.53;;;;;;;-0.04;100.00;103064.13;5006340;28;20116;-71
2022/03/21 03:46:22;;;;;;;181.43;88.32;;;;;;;-0.03;100.00;103062.44;4977615;28;20361;-71
2022/03/21 03:48:48;;;;;;;193.88;90.95;;;;;;;-0.03;100.00;103065.94;4989580;28;20040;-71
2022/03/21 03:51:14;;;;;;;193.98;90.97;;;;;;;-0.04;100.00;103065.88;4986909;28;20116;-72
2022/03/21 03:53:40;;;;;;;198.38;91.47;;;;;;;-0.06;100.00;103060.59;4988814;28;20127;-71
2022/03/21 03:56:06;;;;;;;196.68;89.78;;;;;;;-0.08;100.00;103063.97;5004588;28;20037;-71
2022/03/21 03:58:33;;;;;;;195.25;92.47;;;;;;;-0.08;100.00;103069.19;5006611;28;20121;-71
2022/03/21 04:00:59;;;;;;;196.00;91.45;;;;;;;-0.11;100.00;103064.75;5004962;28;20037;-71
2022/03/21 04:06:09;;;;;;;196.48;89.50;;;;;;;-0.17;100.00;103073.25;5005797;28;20034;-71
2022/03/21 04:08:34;;;;;;;184.35;87.25;;;;;;;-0.21;100.00;103076.56;5006960;28;20074;-71
2022/03/21 04:11:00;;;;;;;195.13;87.75;;;;;;;-0.23;100.00;103083.44;4994239;28;20080;-71
2022/03/21 04:13:25;;;;;;;203.25;91.82;;;;;;;-0.26;100.00;103083.34;5004816;28;20913;-71
2022/03/21 04:15:51;;;;;;;202.43;90.60;;;;;;;-0.27;100.00;103084.19;5007328;28;20477;-71
2022/03/21 04:18:16;;;;;;;206.65;90.90;;;;;;;-0.27;100.00;103094.59;4989203;28;20037;-71
2022/03/21 04:20:42;;;;;;;201.88;90.45;;;;;;;-0.28;100.00;103091.09;5007106;28;20325;-71
2022/03/21 04:23:09;;;;;;;220.43;95.75;;;;;;;-0.30;100.00;103097.09;4990980;28;20035;-71
2022/03/21 04:25:35;;;;;;;210.77;91.43;;;;;;;-0.28;100.00;103095.41;4989985;28;20049;-71
2022/03/21 04:28:08;;;;;;;220.93;94.65;;;;;;;-0.25;100.00;103099.84;5007451;28;20044;-71
2022/03/21 04:30:33;;;;;;;239.23;100.22;;;;;;;-0.21;100.00;103097.41;5008794;28;20124;-71
2022/03/21 04:32:59;;;;;;;246.18;98.50;;;;;;;-0.14;100.00;103093.31;4976911;28;20509;-71
2022/03/21 04:35:26;;;;;;;239.02;100.05;;;;;;;-0.11;100.00;103095.16;5010601;28;20029;-71
2022/03/21 04:37:52;;;;;;;263.83;104.18;;;;;;;-0.10;100.00;103104.72;5008604;28;20558;-71
2022/03/21 04:40:18;;;;;;;233.15;101.80;;;;;;;-0.10;100.00;103099.50;5009597;28;20038;-71
2022/03/21 04:42:43;;;;;;;255.95;103.82;;;;;;;-0.10;100.00;103105.63;4994257;28;20064;-71
2022/03/21 04:45:09;;;;;;;242.68;101.78;;;;;;;-0.10;100.00;103100.41;4995017;28;20722;-71
2022/03/21 04:47:35;;;;;;;273.40;106.53;;;;;;;-0.09;100.00;103103.88;4992936;28;20013;-71
2022/03/21 04:50:01;;;;;;;276.10;107.35;;;;;;;-0.07;100.00;103107.41;5009372;28;20137;-71
2022/03/21 04:52:26;;;;;;;245.98;100.40;;;;;;;-0.10;100.00;103110.84;5010577;28;20041;-71
2022/03/21 04:54:52;;;;;;;263.55;102.82;;;;;;;-0.10;100.00;103105.63;4979825;28;20083;-71
2022/03/21 04:57:22;;;;;;;285.30;109.00;;;;;;;-0.11;100.00;103103.81;4992023;28;20068;-71
2022/03/21 04:59:48;;;;;;;285.02;109.60;;;;;;;-0.06;100.00;103106.63;5009990;28;20046;-71
2022/03/21 05:02:14;;;;;;;271.88;108.35;;;;;;;-0.03;100.00;103111.91;5008479;28;20048;-71
2022/03/21 05:04:39;;;;;;;250.65;103.75;;;;;;;-0.02;100.00;103116.28;5010517;28;20186;-71
2022/03/21 05:07:06;;;;;;;256.77;101.93;;;;;;;-0.05;100.00;103109.25;5009489;28;20148;-71
2022/03/21 05:09:31;;;;;;;254.85;105.82;;;;;;;-0.07;100.00;103110.03;5007810;28;20388;-71
2022/03/21 05:11:57;;;;;;;263.13;106.00;;;;;;;-0.09;100.00;103103.88;4992957;28;20045;-71
2022/03/21 05:14:23;;;;;;;264.58;105.50;;;;;;;-0.10;100.00;103104.72;4992491;28;20037;-72
2022/03/21 05:16:49;;;;;;;267.33;106.82;;;;;;;-0.12;100.00;103103.78;4994154;28;20034;-71
2022/03/21 05:19:15;;;;;;;269.98;106.40;;;;;;;-0.10;100.00;103100.41;5009483;28;20033;-71
2022/03/21 05:21:41;;;;;;;264.88;106.53;;;;;;;-0.08;100.00;103092.63;4975173;28;20451;-71
2022/03/21 05:32:23;;;;;;;247.05;99.60;;;;;;;-0.13;100.00;103102.03;4994884;28;20044;-71
2022/03/21 05:37:33;;;;;;;260.23;103.82;;;;;;;-0.11;100.00;103106.44;4976898;28;20029;-71
2022/03/21 05:42:43;;;;;;;276.10;105.13;;;;;;;-0.10;100.00;103108.22;5009335;28;20054;-71
2022/03/21 05:45:09;;;;;;;245.95;100.10;;;;;;;-0.12;100.00;103109.88;5005950;28;20487;-72
2022/03/21 05:48:50;;;;;;;251.95;99.65;;;;;;;-0.15;100.00;103102.81;5005037;28;20099;-72
2022/03/21 05:50:20;;;;;;;247.95;99.07;;;;;;;-0.17;100.00;103108.81;4992958;28;20056;-71
2022/03/21 05:52:46;;;;;;;268.23;103.72;;;;;;;-0.19;100.00;103114.00;5008912;28;20087;-72
2022/03/21 05:55:12;;;;;;;244.57;97.60;;;;;;;-0.19;100.00;103127.00;4979934;28;20202;-71
2022/03/21 05:57:37;;;;;;;266.17;101.50;;;;;;;-0.16;100.00;103121.91;5007349;28;20075;-72
2022/03/21 06:00:22;;;;;;;266.40;104.10;;;;;;;-0.10;100.00;103115.13;5008805;28;21501;-72
2022/03/21 06:02:51;;;;;;;266.60;104.93;;;;;;;-0.02;100.00;103116.28;5005715;28;20064;-71
2022/03/21 06:05:18;;;;;;;270.55;107.57;;;;;;;0.04;100.00;103119.13;4991864;28;20099;-72
2022/03/21 06:07:44;;;;;;;263.83;103.75;;;;;;;0.07;100.00;103123.56;4991106;28;20046;-72
2022/03/21 06:10:10;;;;;;;260.95;104.10;;;;;;;0.08;100.00;103115.81;4988614;28;20502;-72
2022/03/21 06:12:36;;;;;;;273.00;105.75;;;;;;;0.11;100.00;103125.44;5008556;28;20033;-71
2022/03/21 06:15:02;;;;;;;266.15;104.20;;;;;;;0.13;100.00;103129.84;5010131;28;20038;-72
2022/03/21 06:17:29;;;;;;;300.10;109.70;;;;;;;0.15;100.00;103126.44;4992859;28;20045;-72
2022/03/21 06:19:54;;;;;;;256.75;102.20;;;;;;;0.15;100.00;103129.03;4991488;28;21600;-71
2022/03/21 06:22:20;;;;;;;252.73;100.63;;;;;;;0.15;100.00;103127.31;4959731;28;20048;-72
2022/03/21 06:24:45;;;;;;;250.40;99.28;;;;;;;0.16;100.00;103139.50;4990965;28;20041;-71
2022/03/21 06:27:11;;;;;;;241.63;99.15;;;;;;;0.19;100.00;103142.22;4988218;28;20037;-72
2022/03/21 06:29:41;;;;;;;274.13;103.05;;;;;;;0.19;100.00;103147.44;5005766;28;20033;-71
2022/03/21 06:32:08;;;;;;;253.02;102.03;;;;;;;0.20;100.00;103135.28;4990035;28;20029;-72
2022/03/21 06:34:34;;;;;;;251.77;101.35;;;;;;;0.23;100.00;103143.22;5008107;28;20243;-72
2022/03/21 06:37:00;;;;;;;243.07;97.97;;;;;;;0.26;100.00;103151.13;4994080;28;20033;-72
2022/03/21 06:39:26;;;;;;;223.60;96.30;;;;;;;0.31;100.00;103153.88;4989208;28;20030;-72
2022/03/21 06:41:51;;;;;;;232.07;95.07;;;;;;;0.32;100.00;103148.72;5008379;28;20030;-71
2022/03/21 06:44:17;;;;;;;243.40;99.05;;;;;;;0.37;100.00;103151.50;5005988;28;20037;-72
2022/03/21 06:46:42;;;;;;;204.30;90.65;;;;;;;0.39;100.00;103157.66;5006735;28;20025;-72
2022/03/21 06:49:08;;;;;;;219.25;92.88;;;;;;;0.46;100.00;103164.84;5005814;28;20030;-72
2022/03/21 06:51:34;;;;;;;213.00;92.72;;;;;;;0.51;100.00;103162.41;4986468;28;20911;-72
2022/03/21 06:53:59;;;;;;;225.50;95.38;;;;;;;0.57;100.00;103161.72;5007332;28;20060;-72
2022/03/21 06:56:25;;;;;;;207.77;91.78;;;;;;;0.59;100.00;103166.16;5004853;28;20157;-72
2022/03/21 06:58:51;;;;;;;211.77;93.38;;;;;;;0.64;100.00;103169.81;5008007;28;20152;-72
2022/03/21 07:01:16;;;;;;;212.82;95.45;;;;;;;0.74;100.00;103170.09;5007394;28;20037;-72
2022/03/21 07:03:42;;;;;;;214.15;93.70;;;;;;;0.80;100.00;103168.59;5004171;28;20396;-72
2022/03/21 07:06:07;;;;;;;220.30;95.05;;;;;;;0.86;100.00;103164.41;4986962;28;20037;-72
2022/03/21 07:08:33;;;;;;;206.77;90.68;;;;;;;0.91;100.00;103168.94;5006361;28;20041;-73
2022/03/21 07:10:58;;;;;;;203.50;91.18;;;;;;;0.97;100.00;103164.75;4971148;28;20117;-74
2022/03/21 07:13:27;;;;;;;198.02;89.85;;;;;;;1.04;100.00;103166.72;4988279;28;20134;-74
2022/03/21 07:15:53;;;;;;;191.30;88.75;;;;;;;1.12;100.00;103178.28;4988869;28;20046;-76
2022/03/21 07:18:18;;;;;;;186.00;89.57;;;;;;;1.20;100.00;103174.19;4993073;28;20124;-75
2022/03/21 07:20:44;;;;;;;190.10;89.40;;;;;;;1.27;100.00;103182.22;4975308;28;20508;-75
2022/03/21 07:23:10;;;;;;;172.38;83.43;;;;;;;1.33;100.00;103185.00;4973169;28;20029;-75
2022/03/21 07:25:35;;;;;;;169.15;80.82;;;;;;;1.37;100.00;103180.78;5005356;28;20041;-76
2022/03/21 07:28:01;;;;;;;167.73;81.07;;;;;;;1.40;100.00;103178.25;4989965;28;20033;-72
2022/03/21 07:30:26;;;;;;;163.20;79.20;;;;;;;1.46;100.00;103188.88;5004130;28;20069;-73
2022/03/21 07:32:53;;;;;;;163.10;78.65;;;;;;;1.51;100.00;103189.03;5002821;28;20817;-72
2022/03/21 07:35:18;;;;;;;166.57;81.57;;;;;;;1.56;100.00;103190.94;4990326;28;20107;-72
2022/03/21 07:37:46;;;;;;;158.35;79.53;;;;;;;1.62;100.00;103191.13;5004686;28;20049;-72
2022/03/21 07:40:13;;;;;;;153.93;75.55;;;;;;;1.68;100.00;103197.38;4986684;28;20917;-72
2022/03/21 07:42:43;;;;;;;149.10;75.00;;;;;;;1.75;100.00;103196.72;5003819;28;20048;-73
2022/03/21 07:47:54;;;;;;;135.75;72.05;;;;;;;1.93;100.00;103198.06;5006482;28;20112;-72
2022/03/21 07:50:22;;;;;;;139.23;72.38;;;;;;;2.01;100.00;103200.06;5006192;28;20028;-72
2022/03/21 07:52:48;;;;;;;130.63;70.22;;;;;;;2.09;100.00;103197.69;4987684;28;20422;-72
2022/03/21 07:55:14;;;;;;;127.28;70.60;;;;;;;2.18;100.00;103197.00;4986045;28;20033;-72
2022/03/21 07:57:39;;;;;;;123.97;67.75;;;;;;;2.30;100.00;103204.34;5003916;28;20037;-72
2022/03/21 08:00:09;;;;;;;118.82;66.45;;;;;;;2.42;100.00;103198.53;4990478;28;20042;-73
2022/03/21 08:02:35;;;;;;;113.07;63.00;;;;;;;2.53;100.00;103194.47;5006938;28;20040;-72
2022/03/21 08:05:01;;;;;;;107.88;61.72;;;;;;;2.64;100.00;103206.94;5006336;28;20561;-72
2022/03/21 08:07:27;;;;;;;104.85;59.08;;;;;;;2.74;100.00;103202.84;5006708;28;20045;-73
2022/03/21 08:09:53;;;;;;;103.43;59.20;;;;;;;2.85;100.00;103212.72;4988820;28;20076;-73
2022/03/21 08:12:19;;;;;;;102.97;58.55;;;;;;;2.97;100.00;103219.09;5006263;28;20038;-73
2022/03/21 08:14:44;;;;;;;103.32;58.65;;;;;;;3.06;100.00;103211.47;5006954;28;20044;-73
2022/03/21 08:17:10;;;;;;;97.05;56.10;;;;;;;3.19;100.00;103212.66;5005951;28;20510;-73
2022/03/21 08:19:36;;;;;;;84.03;50.70;;;;;;;3.32;100.00;103216.44;4990511;28;20064;-73
2022/03/21 08:22:04;;;;;;;86.25;49.95;;;;;;;3.48;100.00;103222.03;5007084;28;20494;-72
2022/03/21 08:24:33;;;;;;;79.50;46.50;;;;;;;3.63;100.00;103226.72;5006997;28;20037;-72
2022/03/21 08:26:59;;;;;;;76.40;44.47;;;;;;;3.77;100.00;103230.53;5007541;28;20124;-72
2022/03/21 08:29:24;;;;;;;72.32;41.80;;;;;;;3.93;100.00;103231.72;4976102;28;20025;-72
2022/03/21 08:31:50;;;;;;;59.03;34.13;;;;;;;4.11;100.00;103226.81;4977778;28;20048;-72
2022/03/21 08:34:15;;;;;;;60.97;34.35;;;;;;;4.28;100.00;103220.19;4988201;28;20499;-72
2022/03/21 08:36:41;;;;;;;54.97;34.30;;;;;;;4.42;100.00;103215.19;5005769;28;20034;-72
2022/03/21 08:39:09;;;;;;;58.63;35.58;;;;;;;4.54;100.00;103217.16;4987570;28;20407;-73
2022/03/21 08:41:34;;;;;;;62.72;35.53;;;;;;;4.65;100.00;103212.09;4984797;28;20041;-73
2022/03/21 08:44:00;;;;;;;67.05;37.40;;;;;;;4.76;100.00;103214.91;5006214;28;20033;-73
2022/03/21 08:46:26;;;;;;;67.85;38.33;;;;;;;4.83;100.00;103208.91;5002856;28;20121;-73
2022/03/21 08:51:37;;;;;;;66.97;37.78;;;;;;;5.07;100.00;103211.91;5003217;28;20394;-73
2022/03/21 08:54:07;;;;;;;67.20;38.08;;;;;;;5.17;100.00;103213.81;4988587;28;20507;-73
2022/03/21 08:56:33;;;;;;;60.90;35.85;;;;;;;5.25;100.00;103203.41;5005780;28;20038;-73
2022/03/21 08:58:59;;;;;;;65.93;38.38;;;;;;;5.35;100.00;103209.69;5005376;28;20053;-73
2022/03/21 09:01:25;;;;;;;69.28;39.47;;;;;;;5.43;100.00;103215.94;5002795;28;20612;-73
2022/03/21 09:03:51;;;;;;;67.22;38.55;;;;;;;5.51;100.00;103208.16;5008400;28;20057;-73
2022/03/21 09:06:20;;;;;;;65.78;38.03;;;;;;;5.64;100.00;103209.22;5007071;28;20440;-73
2022/03/21 09:08:47;;;;;;;66.65;36.88;;;;;;;5.76;100.00;103200.59;5003992;28;20052;-73
2022/03/21 09:11:13;;;;;;;67.93;36.97;;;;;;;5.89;100.00;103201.66;5007063;28;20064;-73
2022/03/21 09:13:39;;;;;;;68.18;39.17;;;;;;;5.96;100.00;103198.22;4988109;28;20041;-73
2022/03/21 09:16:05;;;;;;;64.40;37.42;;;;;;;6.08;100.00;103203.66;5008672;28;20115;-73
2022/03/21 09:18:31;;;;;;;65.88;37.65;;;;;;;6.17;100.00;103202.88;5009969;28;20065;-74
2022/03/21 09:20:57;;;;;;;66.68;36.78;;;;;;;6.25;100.00;103203.84;4990456;28;20046;-74
2022/03/21 09:23:22;;;;;;;68.95;37.45;;;;;;;6.39;100.00;103201.34;5007028;28;20037;-73
2022/03/21 09:25:48;;;;;;;66.95;38.50;;;;;;;6.51;100.00;103192.69;5009291;28;20635;-74
2022/03/21 09:28:13;;;;;;;72.85;39.05;;;;;;;6.64;100.00;103212.09;4992856;28;20044;-74
2022/03/21 09:30:39;;;;;;;73.82;40.15;;;;;;;6.73;100.00;103206.03;5009369;28;20452;-73
2022/03/21 09:33:05;;;;;;;71.65;40.72;;;;;;;6.81;100.00;103206.09;5007351;28;20041;-74
2022/03/21 09:35:30;;;;;;;75.47;42.17;;;;;;;6.88;100.00;103204.41;5007390;28;20036;-74
2022/03/21 09:37:56;;;;;;;92.70;43.22;;;;;;;6.95;100.00;103208.84;5009394;28;20495;-74
2022/03/21 09:40:22;;;;;;;83.47;45.85;;;;;;;7.02;100.00;103205.38;4990521;28;20033;-73
2022/03/21 09:42:48;;;;;;;86.13;47.38;;;;;;;7.05;100.00;103207.16;4990691;28;20266;-74
2022/03/21 09:45:14;;;;;;;84.97;47.47;;;;;;;7.11;100.00;103207.22;5009147;28;20465;-73
2022/03/21 09:50:35;;;;;;;85.70;46.28;;;;;;;7.31;100.00;103212.59;5006845;28;20663;-73
2022/03/21 09:53:04;;;;;;;90.25;47.40;;;;;;;7.38;100.00;103205.63;5008988;28;20037;-74
2022/03/21 09:55:30;;;;;;;85.18;45.97;;;;;;;7.51;100.00;103210.97;4991061;28;20044;-74
2022/03/21 09:57:56;;;;;;;77.50;43.00;;;;;;;7.59;100.00;103209.25;5008611;28;20080;-73
2022/03/21 10:00:21;;;;;;;86.85;45.28;;;;;;;7.65;100.00;103197.84;5005378;28;20121;-73
2022/03/21 10:02:47;;;;;;;89.63;46.78;;;;;;;7.72;100.00;103211.06;5007400;28;20420;-73
2022/03/21 10:05:34;;;;;;;87.40;47.85;;;;;;;7.76;99.93;103206.69;5008322;28;20041;-73
2022/03/21 10:08:18;;;;;;;98.07;52.00;;;;;;;7.84;99.26;103199.69;5007417;28;20042;-73
2022/03/21 10:11:01;;;;;;;91.78;49.90;;;;;;;7.92;98.47;103199.72;5007446;28;20032;-73
2022/03/21 10:13:34;;;;;;;113.47;58.25;;;;;;;8.00;97.06;103200.63;5006198;28;20044;-74
2022/03/21 10:16:13;;;;;;;112.40;57.25;;;;;;;8.13;97.21;103208.59;5007584;28;20646;-73
2022/03/21 10:18:56;;;;;;;115.93;60.90;;;;;;;8.19;95.73;103205.06;4990313;28;20075;-73
2022/03/21 10:21:25;;;;;;;101.10;53.38;;;;;;;8.28;95.68;103205.97;5007545;28;20037;-73
2022/03/21 10:24:15;;;;;;;124.43;64.22;;;;;;;8.38;92.99;103203.34;4994772;28;20036;-73
2022/03/21 10:26:43;;;;;;;94.45;50.70;;;;;;;8.46;93.40;103198.09;4971612;28;20041;-73
2022/03/21 10:29:13;;;;;;;84.25;46.10;;;;;;;8.51;93.32;103197.22;5005366;28;20025;-73
2022/03/21 10:31:42;;;;;;;89.68;48.15;;;;;;;8.60;92.22;103206.06;4989280;28;20416;-73
2022/03/21 10:34:12;;;;;;;78.03;42.65;;;;;;;8.65;91.84;103196.34;5008378;28;20049;-73
2022/03/21 10:37:00;;;;;;;76.25;42.15;;;;;;;8.77;89.47;103206.94;5007896;28;20064;-73
2022/03/21 10:39:26;;;;;;;69.45;37.70;;;;;;;8.82;90.15;103202.53;5006807;28;20105;-73
2022/03/21 10:41:57;;;;;;;60.30;34.25;;;;;;;8.88;89.95;103211.34;5007105;28;20034;-73
2022/03/21 10:44:23;;;;;;;59.63;33.33;;;;;;;8.88;89.63;103195.50;4976234;28;20041;-73
2022/03/21 10:46:59;;;;;;;55.65;32.40;;;;;;;8.92;88.28;103199.88;4987951;28;20044;-73
2022/03/21 10:49:28;;;;;;;55.10;32.47;;;;;;;8.98;87.36;103199.88;5005664;28;20029;-73
2022/03/21 10:51:54;;;;;;;43.58;27.20;;;;;;;9.00;86.73;103202.53;4992036;28;20033;-73
2022/03/21 10:54:48;;;;;;;40.80;24.48;;;;;;;9.00;83.22;103197.25;4988328;28;20579;-73
2022/03/21 10:57:28;;;;;;;37.75;21.30;;;;;;;9.07;81.15;103199.88;4987462;28;20119;-73
2022/03/21 11:00:12;;;;;;;35.42;21.83;;;;;;;9.17;80.86;103198.09;5004108;28;20350;-73
2022/03/21 11:03:15;;;;;;;33.65;21.67;;;;;;;9.16;80.15;103200.75;5004706;28;20492;-72
2022/03/21 11:05:48;;;;;;;29.27;19.17;;;;;;;9.17;81.01;103200.75;4969755;28;20128;-73
2022/03/21 11:08:16;;;;;;;32.97;18.10;;;;;;;9.22;79.53;103196.31;5007585;28;20041;-72
2022/03/21 11:10:42;;;;;;;28.33;18.63;;;;;;;9.28;79.30;103197.19;4988943;28;20053;-72
2022/03/21 11:13:08;;;;;;;29.98;19.40;;;;;;;9.35;79.54;103191.88;4989141;28;20100;-73
2022/03/21 11:15:36;;;;;;;30.05;20.00;;;;;;;9.43;76.94;103199.78;5006872;28;20041;-72
2022/03/21 11:18:03;;;;;;;31.70;20.30;;;;;;;9.43;77.72;103197.13;4988552;28;20496;-72
2022/03/21 11:20:29;;;;;;;35.35;22.58;;;;;;;9.46;77.62;103190.97;4989091;28;20029;-72
2022/03/21 11:22:56;;;;;;;36.42;23.67;;;;;;;9.59;78.28;103202.41;5006728;28;20033;-72
2022/03/21 11:25:24;;;;;;;36.58;22.65;;;;;;;9.61;75.98;103198.88;5006992;28;20136;-73
2022/03/21 11:28:27;;;;;;;35.45;22.33;;;;;;;9.59;73.72;103197.97;4976468;28;20032;-72
2022/03/21 11:31:10;;;;;;;35.65;20.65;;;;;;;9.63;74.87;103197.09;5004378;28;20115;-72